sensor_id;sensor_type;location;lat;lon;timestamp;temperature;humidity
26053;DHT22;13826;51.186;4.450;2022-10-15T00:00:42;15.10;94.00
26053;DHT22;13826;51.186;4.450;2022-10-15T00:03:08;15.20;93.60
26053;DHT22;13826;51.186;4.450;2022-10-15T00:05:40;15.20;93.60
26053;DHT22;13826;51.186;4.450;2022-10-15T00:08:07;15.20;94.10
26053;DHT22;13826;51.186;4.450;2022-10-15T00:10:35;15.30;93.60
26053;DHT22;13826;51.186;4.450;2022-10-15T00:13:00;15.30;93.40
26053;DHT22;13826;51.186;4.450;2022-10-15T00:15:26;15.20;93.70
26053;DHT22;13826;51.186;4.450;2022-10-15T00:17:52;15.10;94.50
26053;DHT22;13826;51.186;4.450;2022-10-15T00:20:18;15.10;95.20
26053;DHT22;13826;51.186;4.450;2022-10-15T00:22:44;15.10;95.40
26053;DHT22;13826;51.186;4.450;2022-10-15T00:25:10;15.10;95.00
26053;DHT22;13826;51.186;4.450;2022-10-15T00:27:36;15.10;95.90
26053;DHT22;13826;51.186;4.450;2022-10-15T00:30:03;15.10;96.40
26053;DHT22;13826;51.186;4.450;2022-10-15T00:32:29;15.20;95.80
26053;DHT22;13826;51.186;4.450;2022-10-15T00:34:55;15.20;95.30
26053;DHT22;13826;51.186;4.450;2022-10-15T00:37:21;15.20;95.50
26053;DHT22;13826;51.186;4.450;2022-10-15T00:39:47;15.30;95.20
26053;DHT22;13826;51.186;4.450;2022-10-15T00:42:13;15.20;94.80
26053;DHT22;13826;51.186;4.450;2022-10-15T00:44:55;15.20;95.20
26053;DHT22;13826;51.186;4.450;2022-10-15T00:47:40;15.30;95.10
26053;DHT22;13826;51.186;4.450;2022-10-15T00:50:19;15.20;94.70
26053;DHT22;13826;51.186;4.450;2022-10-15T00:52:58;15.20;95.50
26053;DHT22;13826;51.186;4.450;2022-10-15T00:55:30;15.30;95.30
26053;DHT22;13826;51.186;4.450;2022-10-15T00:58:06;15.20;95.20
26053;DHT22;13826;51.186;4.450;2022-10-15T01:00:32;15.30;94.60
26053;DHT22;13826;51.186;4.450;2022-10-15T01:02:58;15.40;94.30
26053;DHT22;13826;51.186;4.450;2022-10-15T01:05:24;15.50;93.70
26053;DHT22;13826;51.186;4.450;2022-10-15T01:07:50;15.50;93.50
26053;DHT22;13826;51.186;4.450;2022-10-15T01:10:17;15.50;93.00
26053;DHT22;13826;51.186;4.450;2022-10-15T01:15:45;15.50;92.50
26053;DHT22;13826;51.186;4.450;2022-10-15T01:18:31;15.40;92.80
26053;DHT22;13826;51.186;4.450;2022-10-15T01:21:11;15.40;93.60
26053;DHT22;13826;51.186;4.450;2022-10-15T01:32:10;15.40;93.40
26053;DHT22;13826;51.186;4.450;2022-10-15T01:37:18;15.30;93.50
26053;DHT22;13826;51.186;4.450;2022-10-15T01:39:58;15.20;93.40
26053;DHT22;13826;51.186;4.450;2022-10-15T01:42:47;15.10;94.30
26053;DHT22;13826;51.186;4.450;2022-10-15T01:45:39;15.00;95.00
26053;DHT22;13826;51.186;4.450;2022-10-15T01:48:09;15.10;95.90
26053;DHT22;13826;51.186;4.450;2022-10-15T01:50:40;15.00;96.20
26053;DHT22;13826;51.186;4.450;2022-10-15T01:53:08;15.00;97.10
26053;DHT22;13826;51.186;4.450;2022-10-15T01:55:36;15.20;95.70
26053;DHT22;13826;51.186;4.450;2022-10-15T01:58:06;15.20;94.20
26053;DHT22;13826;51.186;4.450;2022-10-15T02:00:33;15.30;93.50
26053;DHT22;13826;51.186;4.450;2022-10-15T02:03:03;15.20;94.00
26053;DHT22;13826;51.186;4.450;2022-10-15T02:05:39;15.20;94.50
26053;DHT22;13826;51.186;4.450;2022-10-15T02:11:11;15.20;95.40
26053;DHT22;13826;51.186;4.450;2022-10-15T02:13:59;15.10;95.80
26053;DHT22;13826;51.186;4.450;2022-10-15T02:19:09;15.10;96.30
26053;DHT22;13826;51.186;4.450;2022-10-15T02:21:42;15.00;96.10
26053;DHT22;13826;51.186;4.450;2022-10-15T02:26:46;15.00;96.60
26053;DHT22;13826;51.186;4.450;2022-10-15T02:29:16;15.00;96.50
26053;DHT22;13826;51.186;4.450;2022-10-15T02:31:44;15.00;96.20
26053;DHT22;13826;51.186;4.450;2022-10-15T02:34:16;15.00;95.90
26053;DHT22;13826;51.186;4.450;2022-10-15T02:36:43;15.00;95.70
26053;DHT22;13826;51.186;4.450;2022-10-15T02:39:14;15.00;96.40
26053;DHT22;13826;51.186;4.450;2022-10-15T02:41:43;15.00;97.00
26053;DHT22;13826;51.186;4.450;2022-10-15T02:44:09;15.00;97.20
26053;DHT22;13826;51.186;4.450;2022-10-15T02:46:35;15.00;97.80
26053;DHT22;13826;51.186;4.450;2022-10-15T02:49:00;14.90;98.50
26053;DHT22;13826;51.186;4.450;2022-10-15T02:51:26;14.90;98.50
26053;DHT22;13826;51.186;4.450;2022-10-15T02:53:55;14.90;98.60
26053;DHT22;13826;51.186;4.450;2022-10-15T02:56:21;14.90;98.70
26053;DHT22;13826;51.186;4.450;2022-10-15T02:58:46;15.00;98.30
26053;DHT22;13826;51.186;4.450;2022-10-15T03:01:12;15.00;97.60
26053;DHT22;13826;51.186;4.450;2022-10-15T03:03:37;14.90;97.30
26053;DHT22;13826;51.186;4.450;2022-10-15T03:06:03;14.90;97.70
26053;DHT22;13826;51.186;4.450;2022-10-15T03:08:30;14.90;98.30
26053;DHT22;13826;51.186;4.450;2022-10-15T03:10:59;14.80;98.00
26053;DHT22;13826;51.186;4.450;2022-10-15T03:13:26;14.80;97.70
26053;DHT22;13826;51.186;4.450;2022-10-15T03:15:52;14.90;97.40
26053;DHT22;13826;51.186;4.450;2022-10-15T03:18:18;14.80;97.50
26053;DHT22;13826;51.186;4.450;2022-10-15T03:20:43;14.80;97.80
26053;DHT22;13826;51.186;4.450;2022-10-15T03:23:09;14.70;98.70
26053;DHT22;13826;51.186;4.450;2022-10-15T03:25:35;14.70;98.80
26053;DHT22;13826;51.186;4.450;2022-10-15T03:28:00;14.70;99.10
26053;DHT22;13826;51.186;4.450;2022-10-15T03:30:26;14.70;99.40
26053;DHT22;13826;51.186;4.450;2022-10-15T03:32:52;14.70;99.80
26053;DHT22;13826;51.186;4.450;2022-10-15T03:35:17;14.60;99.90
26053;DHT22;13826;51.186;4.450;2022-10-15T03:37:43;14.60;99.70
26053;DHT22;13826;51.186;4.450;2022-10-15T03:40:09;14.60;99.90
26053;DHT22;13826;51.186;4.450;2022-10-15T03:42:35;14.40;99.90
26053;DHT22;13826;51.186;4.450;2022-10-15T03:45:00;14.50;99.90
26053;DHT22;13826;51.186;4.450;2022-10-15T03:47:26;14.40;99.80
26053;DHT22;13826;51.186;4.450;2022-10-15T03:49:52;14.40;99.90
26053;DHT22;13826;51.186;4.450;2022-10-15T03:52:17;14.40;99.60
26053;DHT22;13826;51.186;4.450;2022-10-15T03:54:43;14.40;99.10
26053;DHT22;13826;51.186;4.450;2022-10-15T03:57:09;14.30;99.00
26053;DHT22;13826;51.186;4.450;2022-10-15T03:59:34;14.30;98.90
26053;DHT22;13826;51.186;4.450;2022-10-15T04:02:00;14.40;98.80
26053;DHT22;13826;51.186;4.450;2022-10-15T04:04:26;14.30;98.70
26053;DHT22;13826;51.186;4.450;2022-10-15T04:06:51;14.30;98.90
26053;DHT22;13826;51.186;4.450;2022-10-15T04:09:17;14.30;98.60
26053;DHT22;13826;51.186;4.450;2022-10-15T04:11:43;14.30;98.70
26053;DHT22;13826;51.186;4.450;2022-10-15T04:14:08;14.30;98.70
26053;DHT22;13826;51.186;4.450;2022-10-15T04:16:34;14.30;98.70
26053;DHT22;13826;51.186;4.450;2022-10-15T04:18:59;14.20;98.90
26053;DHT22;13826;51.186;4.450;2022-10-15T04:21:25;14.10;99.40
26053;DHT22;13826;51.186;4.450;2022-10-15T04:23:51;14.10;99.90
26053;DHT22;13826;51.186;4.450;2022-10-15T04:26:19;14.10;99.90
26053;DHT22;13826;51.186;4.450;2022-10-15T04:28:47;14.20;99.90
26053;DHT22;13826;51.186;4.450;2022-10-15T04:31:13;14.20;99.90
26053;DHT22;13826;51.186;4.450;2022-10-15T04:33:38;14.20;99.70
26053;DHT22;13826;51.186;4.450;2022-10-15T04:36:11;14.20;99.20
26053;DHT22;13826;51.186;4.450;2022-10-15T04:38:37;14.10;99.50
26053;DHT22;13826;51.186;4.450;2022-10-15T04:41:04;14.10;99.60
26053;DHT22;13826;51.186;4.450;2022-10-15T04:43:31;14.20;99.00
26053;DHT22;13826;51.186;4.450;2022-10-15T04:46:01;14.20;98.40
26053;DHT22;13826;51.186;4.450;2022-10-15T04:48:29;14.20;98.20
26053;DHT22;13826;51.186;4.450;2022-10-15T04:51:01;14.30;98.50
26053;DHT22;13826;51.186;4.450;2022-10-15T04:53:26;14.20;99.80
26053;DHT22;13826;51.186;4.450;2022-10-15T04:55:52;14.20;99.90
26053;DHT22;13826;51.186;4.450;2022-10-15T04:58:18;14.20;99.90
26053;DHT22;13826;51.186;4.450;2022-10-15T05:00:43;14.30;99.90
26053;DHT22;13826;51.186;4.450;2022-10-15T05:03:09;14.40;99.90
26053;DHT22;13826;51.186;4.450;2022-10-15T05:05:35;14.40;99.90
26053;DHT22;13826;51.186;4.450;2022-10-15T05:08:01;14.40;99.90
26053;DHT22;13826;51.186;4.450;2022-10-15T05:10:27;14.40;99.90
26053;DHT22;13826;51.186;4.450;2022-10-15T05:12:53;14.40;99.70
26053;DHT22;13826;51.186;4.450;2022-10-15T05:15:19;14.40;99.90
26053;DHT22;13826;51.186;4.450;2022-10-15T05:17:44;14.40;99.90
26053;DHT22;13826;51.186;4.450;2022-10-15T05:20:10;14.40;99.90
26053;DHT22;13826;51.186;4.450;2022-10-15T05:22:35;14.40;99.90
26053;DHT22;13826;51.186;4.450;2022-10-15T05:25:01;14.50;99.90
26053;DHT22;13826;51.186;4.450;2022-10-15T05:27:27;14.50;99.40
26053;DHT22;13826;51.186;4.450;2022-10-15T05:29:53;14.60;99.00
26053;DHT22;13826;51.186;4.450;2022-10-15T05:32:18;14.60;98.40
26053;DHT22;13826;51.186;4.450;2022-10-15T05:34:44;14.60;98.30
26053;DHT22;13826;51.186;4.450;2022-10-15T05:37:09;14.50;98.80
26053;DHT22;13826;51.186;4.450;2022-10-15T05:39:35;14.50;98.80
26053;DHT22;13826;51.186;4.450;2022-10-15T05:42:01;14.60;98.30
26053;DHT22;13826;51.186;4.450;2022-10-15T05:44:26;14.70;97.10
26053;DHT22;13826;51.186;4.450;2022-10-15T05:46:55;14.60;97.20
26053;DHT22;13826;51.186;4.450;2022-10-15T05:49:21;14.60;96.80
26053;DHT22;13826;51.186;4.450;2022-10-15T05:51:47;14.50;97.90
26053;DHT22;13826;51.186;4.450;2022-10-15T05:54:13;14.50;98.10
26053;DHT22;13826;51.186;4.450;2022-10-15T05:56:38;14.50;98.50
26053;DHT22;13826;51.186;4.450;2022-10-15T05:59:04;14.50;98.00
26053;DHT22;13826;51.186;4.450;2022-10-15T06:01:30;14.50;98.00
26053;DHT22;13826;51.186;4.450;2022-10-15T06:03:55;14.50;97.90
26053;DHT22;13826;51.186;4.450;2022-10-15T06:06:23;14.50;97.70
26053;DHT22;13826;51.186;4.450;2022-10-15T06:08:52;14.50;97.90
26053;DHT22;13826;51.186;4.450;2022-10-15T06:11:18;14.40;98.20
26053;DHT22;13826;51.186;4.450;2022-10-15T06:13:45;14.50;98.20
26053;DHT22;13826;51.186;4.450;2022-10-15T06:16:11;14.50;98.00
26053;DHT22;13826;51.186;4.450;2022-10-15T06:18:38;14.50;98.50
26053;DHT22;13826;51.186;4.450;2022-10-15T06:21:05;14.50;98.30
26053;DHT22;13826;51.186;4.450;2022-10-15T06:23:32;14.50;98.90
26053;DHT22;13826;51.186;4.450;2022-10-15T06:26:03;14.60;98.20
26053;DHT22;13826;51.186;4.450;2022-10-15T06:28:29;14.60;97.90
26053;DHT22;13826;51.186;4.450;2022-10-15T06:30:57;14.60;98.30
26053;DHT22;13826;51.186;4.450;2022-10-15T06:33:24;14.60;98.40
26053;DHT22;13826;51.186;4.450;2022-10-15T06:35:49;14.70;98.50
26053;DHT22;13826;51.186;4.450;2022-10-15T06:38:15;14.70;98.60
26053;DHT22;13826;51.186;4.450;2022-10-15T06:40:40;14.70;98.90
26053;DHT22;13826;51.186;4.450;2022-10-15T06:43:08;14.70;98.80
26053;DHT22;13826;51.186;4.450;2022-10-15T06:45:39;14.80;97.60
26053;DHT22;13826;51.186;4.450;2022-10-15T06:48:07;14.80;97.50
26053;DHT22;13826;51.186;4.450;2022-10-15T06:50:35;15.00;97.30
26053;DHT22;13826;51.186;4.450;2022-10-15T06:53:01;14.90;96.40
26053;DHT22;13826;51.186;4.450;2022-10-15T06:55:27;15.00;96.10
26053;DHT22;13826;51.186;4.450;2022-10-15T06:57:56;15.10;95.60
26053;DHT22;13826;51.186;4.450;2022-10-15T07:00:23;14.90;96.50
26053;DHT22;13826;51.186;4.450;2022-10-15T07:02:49;14.80;96.10
26053;DHT22;13826;51.186;4.450;2022-10-15T07:05:15;15.00;97.00
26053;DHT22;13826;51.186;4.450;2022-10-15T07:07:41;15.20;95.70
26053;DHT22;13826;51.186;4.450;2022-10-15T07:10:07;15.20;94.00
26053;DHT22;13826;51.186;4.450;2022-10-15T07:12:33;15.40;94.00
26053;DHT22;13826;51.186;4.450;2022-10-15T07:14:59;15.40;92.60
26053;DHT22;13826;51.186;4.450;2022-10-15T07:17:24;15.40;91.60
26053;DHT22;13826;51.186;4.450;2022-10-15T07:19:50;15.50;91.90
26053;DHT22;13826;51.186;4.450;2022-10-15T07:22:16;15.50;90.80
26053;DHT22;13826;51.186;4.450;2022-10-15T07:24:41;15.60;91.10
26053;DHT22;13826;51.186;4.450;2022-10-15T07:27:07;15.80;88.70
26053;DHT22;13826;51.186;4.450;2022-10-15T07:29:33;15.90;84.30
26053;DHT22;13826;51.186;4.450;2022-10-15T07:31:58;15.90;82.10
26053;DHT22;13826;51.186;4.450;2022-10-15T07:34:24;15.90;81.50
26053;DHT22;13826;51.186;4.450;2022-10-15T07:36:50;16.00;79.90
26053;DHT22;13826;51.186;4.450;2022-10-15T07:39:15;15.80;82.90
26053;DHT22;13826;51.186;4.450;2022-10-15T07:41:44;15.80;86.40
26053;DHT22;13826;51.186;4.450;2022-10-15T07:44:10;15.90;84.70
26053;DHT22;13826;51.186;4.450;2022-10-15T07:46:36;16.00;81.60
26053;DHT22;13826;51.186;4.450;2022-10-15T07:49:02;16.20;80.10
26053;DHT22;13826;51.186;4.450;2022-10-15T07:51:27;16.20;80.60
26053;DHT22;13826;51.186;4.450;2022-10-15T07:53:53;16.30;80.00
26053;DHT22;13826;51.186;4.450;2022-10-15T07:56:19;16.40;74.90
26053;DHT22;13826;51.186;4.450;2022-10-15T07:58:45;16.30;78.50
26053;DHT22;13826;51.186;4.450;2022-10-15T08:01:17;16.20;81.80
26053;DHT22;13826;51.186;4.450;2022-10-15T08:03:43;16.20;81.70
26053;DHT22;13826;51.186;4.450;2022-10-15T08:06:09;16.40;80.00
26053;DHT22;13826;51.186;4.450;2022-10-15T08:08:35;16.50;77.90
26053;DHT22;13826;51.186;4.450;2022-10-15T08:11:09;16.50;76.30
26053;DHT22;13826;51.186;4.450;2022-10-15T08:13:36;16.70;73.60
26053;DHT22;13826;51.186;4.450;2022-10-15T08:16:05;16.60;72.60
26053;DHT22;13826;51.186;4.450;2022-10-15T08:18:31;16.50;78.60
26053;DHT22;13826;51.186;4.450;2022-10-15T08:20:59;16.40;81.00
26053;DHT22;13826;51.186;4.450;2022-10-15T08:23:25;16.40;82.10
26053;DHT22;13826;51.186;4.450;2022-10-15T08:25:50;16.40;82.30
26053;DHT22;13826;51.186;4.450;2022-10-15T08:28:19;16.20;89.00
26053;DHT22;13826;51.186;4.450;2022-10-15T08:30:44;16.20;91.10
26053;DHT22;13826;51.186;4.450;2022-10-15T08:33:10;16.10;90.50
26053;DHT22;13826;51.186;4.450;2022-10-15T08:35:40;16.20;92.30
26053;DHT22;13826;51.186;4.450;2022-10-15T08:38:06;16.10;92.70
26053;DHT22;13826;51.186;4.450;2022-10-15T08:40:31;16.10;93.60
26053;DHT22;13826;51.186;4.450;2022-10-15T08:42:57;16.10;93.60
26053;DHT22;13826;51.186;4.450;2022-10-15T08:45:28;16.10;94.60
26053;DHT22;13826;51.186;4.450;2022-10-15T08:48:02;16.00;95.30
26053;DHT22;13826;51.186;4.450;2022-10-15T08:50:54;16.10;94.30
26053;DHT22;13826;51.186;4.450;2022-10-15T08:53:24;16.20;94.40
26053;DHT22;13826;51.186;4.450;2022-10-15T08:55:54;16.30;94.10
26053;DHT22;13826;51.186;4.450;2022-10-15T09:01:27;16.50;91.80
26053;DHT22;13826;51.186;4.450;2022-10-15T09:06:36;16.60;92.40
26053;DHT22;13826;51.186;4.450;2022-10-15T09:14:25;16.40;95.50
26053;DHT22;13826;51.186;4.450;2022-10-15T09:16:52;16.50;94.90
26053;DHT22;13826;51.186;4.450;2022-10-15T09:19:23;16.60;94.50
26053;DHT22;13826;51.186;4.450;2022-10-15T09:21:51;16.70;94.20
26053;DHT22;13826;51.186;4.450;2022-10-15T09:24:26;16.80;93.30
26053;DHT22;13826;51.186;4.450;2022-10-15T09:35:06;16.90;95.00
26053;DHT22;13826;51.186;4.450;2022-10-15T09:38:08;17.00;94.20
26053;DHT22;13826;51.186;4.450;2022-10-15T09:43:09;17.00;94.80
26053;DHT22;13826;51.186;4.450;2022-10-15T09:45:35;17.20;94.80
26053;DHT22;13826;51.186;4.450;2022-10-15T09:48:04;17.10;95.40
26053;DHT22;13826;51.186;4.450;2022-10-15T09:50:43;17.10;95.30
26053;DHT22;13826;51.186;4.450;2022-10-15T09:56:22;17.50;94.20
26053;DHT22;13826;51.186;4.450;2022-10-15T09:58:52;17.50;93.90
26053;DHT22;13826;51.186;4.450;2022-10-15T10:01:20;17.60;92.80
26053;DHT22;13826;51.186;4.450;2022-10-15T10:03:52;17.70;92.40
26053;DHT22;13826;51.186;4.450;2022-10-15T10:06:18;17.70;93.10
26053;DHT22;13826;51.186;4.450;2022-10-15T10:08:55;17.80;92.50
26053;DHT22;13826;51.186;4.450;2022-10-15T10:11:23;17.90;91.70
26053;DHT22;13826;51.186;4.450;2022-10-15T10:16:17;18.10;90.70
26053;DHT22;13826;51.186;4.450;2022-10-15T10:18:43;18.20;90.20
26053;DHT22;13826;51.186;4.450;2022-10-15T10:21:27;18.20;90.00
26053;DHT22;13826;51.186;4.450;2022-10-15T10:23:54;18.20;90.00
26053;DHT22;13826;51.186;4.450;2022-10-15T10:26:20;18.20;90.00
26053;DHT22;13826;51.186;4.450;2022-10-15T10:28:54;18.20;90.10
26053;DHT22;13826;51.186;4.450;2022-10-15T10:31:32;18.30;90.20
26053;DHT22;13826;51.186;4.450;2022-10-15T10:34:01;18.20;92.20
26053;DHT22;13826;51.186;4.450;2022-10-15T10:36:33;18.30;91.70
26053;DHT22;13826;51.186;4.450;2022-10-15T10:39:23;18.30;92.30
26053;DHT22;13826;51.186;4.450;2022-10-15T10:44:42;18.40;91.40
26053;DHT22;13826;51.186;4.450;2022-10-15T10:47:25;18.40;90.60
26053;DHT22;13826;51.186;4.450;2022-10-15T10:49:53;18.40;91.60
26053;DHT22;13826;51.186;4.450;2022-10-15T10:52:31;18.40;92.40
26053;DHT22;13826;51.186;4.450;2022-10-15T11:00:43;18.80;91.10
26053;DHT22;13826;51.186;4.450;2022-10-15T11:03:35;18.80;92.00
26053;DHT22;13826;51.186;4.450;2022-10-15T11:08:53;19.00;90.00
26053;DHT22;13826;51.186;4.450;2022-10-15T11:11:36;19.10;91.60
26053;DHT22;13826;51.186;4.450;2022-10-15T11:20:13;21.30;38.50
26053;DHT22;13826;51.186;4.450;2022-10-15T11:22:47;21.40;35.10
26053;DHT22;13826;51.186;4.450;2022-10-15T11:28:28;21.30;38.20
26053;DHT22;13826;51.186;4.450;2022-10-15T11:31:07;21.20;29.50
26053;DHT22;13826;51.186;4.450;2022-10-15T11:53:00;23.20;1.00
26053;DHT22;13826;51.186;4.450;2022-10-15T11:55:44;22.60;1.00
26053;DHT22;13826;51.186;4.450;2022-10-15T11:58:19;22.30;1.00
26053;DHT22;13826;51.186;4.450;2022-10-15T12:00:55;23.30;1.00
26053;DHT22;13826;51.186;4.450;2022-10-15T12:03:25;23.60;1.00
26053;DHT22;13826;51.186;4.450;2022-10-15T12:05:58;22.90;1.00
26053;DHT22;13826;51.186;4.450;2022-10-15T12:08:28;22.80;1.00
26053;DHT22;13826;51.186;4.450;2022-10-15T12:13:38;22.90;1.00
26053;DHT22;13826;51.186;4.450;2022-10-15T12:19:01;22.60;1.00
26053;DHT22;13826;51.186;4.450;2022-10-15T12:21:32;22.10;1.00
26053;DHT22;13826;51.186;4.450;2022-10-15T12:23:58;21.70;1.00
26053;DHT22;13826;51.186;4.450;2022-10-15T12:28:52;21.40;1.00
26053;DHT22;13826;51.186;4.450;2022-10-15T12:31:18;21.40;6.50
26053;DHT22;13826;51.186;4.450;2022-10-15T12:36:25;20.90;5.70
26053;DHT22;13826;51.186;4.450;2022-10-15T12:39:04;21.10;2.20
26053;DHT22;13826;51.186;4.450;2022-10-15T12:41:41;21.20;1.00
26053;DHT22;13826;51.186;4.450;2022-10-15T12:46:43;21.00;1.00
26053;DHT22;13826;51.186;4.450;2022-10-15T12:51:58;20.60;1.00
26053;DHT22;13826;51.186;4.450;2022-10-15T12:54:41;20.50;1.00
26053;DHT22;13826;51.186;4.450;2022-10-15T13:02:51;21.00;1.00
26053;DHT22;13826;51.186;4.450;2022-10-15T13:05:30;20.90;1.00
26053;DHT22;13826;51.186;4.450;2022-10-15T13:07:58;21.10;1.00
26053;DHT22;13826;51.186;4.450;2022-10-15T13:10:37;21.30;1.00
26053;DHT22;13826;51.186;4.450;2022-10-15T13:13:06;21.10;1.00
26053;DHT22;13826;51.186;4.450;2022-10-15T13:15:36;21.00;1.00
26053;DHT22;13826;51.186;4.450;2022-10-15T13:18:12;20.90;1.00
26053;DHT22;13826;51.186;4.450;2022-10-15T13:20:43;21.10;1.00
26053;DHT22;13826;51.186;4.450;2022-10-15T13:23:25;21.40;1.00
26053;DHT22;13826;51.186;4.450;2022-10-15T13:26:09;21.40;1.00
26053;DHT22;13826;51.186;4.450;2022-10-15T13:28:40;21.10;1.00
26053;DHT22;13826;51.186;4.450;2022-10-15T13:31:20;20.70;1.00
26053;DHT22;13826;51.186;4.450;2022-10-15T13:33:50;20.70;1.00
26053;DHT22;13826;51.186;4.450;2022-10-15T13:36:25;20.40;1.00
26053;DHT22;13826;51.186;4.450;2022-10-15T13:38:58;20.30;1.00
26053;DHT22;13826;51.186;4.450;2022-10-15T13:41:26;20.30;1.00
26053;DHT22;13826;51.186;4.450;2022-10-15T13:43:54;20.50;1.00
26053;DHT22;13826;51.186;4.450;2022-10-15T13:46:24;20.70;1.00
26053;DHT22;13826;51.186;4.450;2022-10-15T13:48:56;20.60;1.00
26053;DHT22;13826;51.186;4.450;2022-10-15T13:51:22;20.40;1.00
26053;DHT22;13826;51.186;4.450;2022-10-15T13:53:49;20.70;1.00
26053;DHT22;13826;51.186;4.450;2022-10-15T13:56:24;20.90;1.00
26053;DHT22;13826;51.186;4.450;2022-10-15T13:58:51;20.90;1.00
26053;DHT22;13826;51.186;4.450;2022-10-15T14:01:20;20.70;1.00
26053;DHT22;13826;51.186;4.450;2022-10-15T14:03:57;20.50;1.00
26053;DHT22;13826;51.186;4.450;2022-10-15T14:06:32;20.10;1.00
26053;DHT22;13826;51.186;4.450;2022-10-15T14:09:00;19.80;1.00
26053;DHT22;13826;51.186;4.450;2022-10-15T14:11:28;19.80;1.00
26053;DHT22;13826;51.186;4.450;2022-10-15T14:13:56;19.90;1.00
26053;DHT22;13826;51.186;4.450;2022-10-15T14:16:32;20.10;1.00
26053;DHT22;13826;51.186;4.450;2022-10-15T14:21:32;19.80;1.00
26053;DHT22;13826;51.186;4.450;2022-10-15T14:26:30;19.70;1.00
26053;DHT22;13826;51.186;4.450;2022-10-15T14:28:57;19.60;1.00
26053;DHT22;13826;51.186;4.450;2022-10-15T14:34:00;19.60;1.00
26053;DHT22;13826;51.186;4.450;2022-10-15T14:36:29;19.50;1.00
26053;DHT22;13826;51.186;4.450;2022-10-15T14:39:37;19.50;1.00
26053;DHT22;13826;51.186;4.450;2022-10-15T14:42:05;19.70;1.00
26053;DHT22;13826;51.186;4.450;2022-10-15T14:44:46;19.70;1.00
26053;DHT22;13826;51.186;4.450;2022-10-15T14:47:26;19.60;1.00
26053;DHT22;13826;51.186;4.450;2022-10-15T14:50:00;19.50;1.00
26053;DHT22;13826;51.186;4.450;2022-10-15T14:52:29;19.50;1.00
26053;DHT22;13826;51.186;4.450;2022-10-15T14:55:04;19.60;1.00
26053;DHT22;13826;51.186;4.450;2022-10-15T14:57:38;19.50;1.00
26053;DHT22;13826;51.186;4.450;2022-10-15T15:00:14;19.60;1.00
26053;DHT22;13826;51.186;4.450;2022-10-15T15:02:41;19.40;1.00
26053;DHT22;13826;51.186;4.450;2022-10-15T15:07:33;19.20;1.00
26053;DHT22;13826;51.186;4.450;2022-10-15T15:09:59;19.10;1.00
26053;DHT22;13826;51.186;4.450;2022-10-15T15:12:26;19.10;1.00
26053;DHT22;13826;51.186;4.450;2022-10-15T15:14:52;19.10;1.00
26053;DHT22;13826;51.186;4.450;2022-10-15T15:17:23;19.20;1.00
26053;DHT22;13826;51.186;4.450;2022-10-15T15:19:50;19.00;1.00
26053;DHT22;13826;51.186;4.450;2022-10-15T15:22:27;18.90;1.00
26053;DHT22;13826;51.186;4.450;2022-10-15T15:24:54;19.00;1.00
26053;DHT22;13826;51.186;4.450;2022-10-15T15:27:29;18.90;1.00
26053;DHT22;13826;51.186;4.450;2022-10-15T15:29:56;19.10;1.00
26053;DHT22;13826;51.186;4.450;2022-10-15T15:32:22;19.00;1.00
26053;DHT22;13826;51.186;4.450;2022-10-15T15:34:49;19.10;1.00
26053;DHT22;13826;51.186;4.450;2022-10-15T15:37:20;19.10;1.00
26053;DHT22;13826;51.186;4.450;2022-10-15T15:39:47;19.20;1.00
26053;DHT22;13826;51.186;4.450;2022-10-15T15:42:15;19.20;1.00
26053;DHT22;13826;51.186;4.450;2022-10-15T15:44:41;19.10;1.00
26053;DHT22;13826;51.186;4.450;2022-10-15T15:47:07;18.90;1.00
26053;DHT22;13826;51.186;4.450;2022-10-15T15:49:33;18.80;1.00
26053;DHT22;13826;51.186;4.450;2022-10-15T15:51:59;18.70;1.00
26053;DHT22;13826;51.186;4.450;2022-10-15T15:54:25;18.60;1.00
26053;DHT22;13826;51.186;4.450;2022-10-15T15:56:50;18.40;1.00
26053;DHT22;13826;51.186;4.450;2022-10-15T15:59:16;18.40;1.00
26053;DHT22;13826;51.186;4.450;2022-10-15T16:01:44;18.30;1.00
26053;DHT22;13826;51.186;4.450;2022-10-15T16:04:10;18.30;1.00
26053;DHT22;13826;51.186;4.450;2022-10-15T16:06:40;18.20;1.00
26053;DHT22;13826;51.186;4.450;2022-10-15T16:09:07;18.10;1.00
26053;DHT22;13826;51.186;4.450;2022-10-15T16:11:33;18.10;1.00
26053;DHT22;13826;51.186;4.450;2022-10-15T16:13:59;18.20;1.00
26053;DHT22;13826;51.186;4.450;2022-10-15T16:16:25;18.10;1.00
26053;DHT22;13826;51.186;4.450;2022-10-15T16:18:51;17.90;1.00
26053;DHT22;13826;51.186;4.450;2022-10-15T16:21:21;17.90;1.00
26053;DHT22;13826;51.186;4.450;2022-10-15T16:23:47;17.90;1.00
26053;DHT22;13826;51.186;4.450;2022-10-15T16:26:12;17.90;1.00
26053;DHT22;13826;51.186;4.450;2022-10-15T16:28:38;18.00;1.00
26053;DHT22;13826;51.186;4.450;2022-10-15T16:31:18;17.90;1.00
26053;DHT22;13826;51.186;4.450;2022-10-15T16:33:44;17.80;1.00
26053;DHT22;13826;51.186;4.450;2022-10-15T16:36:10;17.80;1.00
26053;DHT22;13826;51.186;4.450;2022-10-15T16:38:38;17.70;1.00
26053;DHT22;13826;51.186;4.450;2022-10-15T16:41:05;17.60;1.00
26053;DHT22;13826;51.186;4.450;2022-10-15T16:43:32;17.50;1.00
26053;DHT22;13826;51.186;4.450;2022-10-15T16:45:58;17.40;1.00
26053;DHT22;13826;51.186;4.450;2022-10-15T16:48:24;17.40;1.00
26053;DHT22;13826;51.186;4.450;2022-10-15T16:51:12;17.30;1.00
26053;DHT22;13826;51.186;4.450;2022-10-15T16:53:39;17.30;1.00
26053;DHT22;13826;51.186;4.450;2022-10-15T16:58:32;17.20;1.00
26053;DHT22;13826;51.186;4.450;2022-10-15T17:01:06;17.10;1.00
26053;DHT22;13826;51.186;4.450;2022-10-15T17:03:34;17.00;1.00
26053;DHT22;13826;51.186;4.450;2022-10-15T17:06:11;16.90;1.00
26053;DHT22;13826;51.186;4.450;2022-10-15T17:08:39;16.80;1.00
26053;DHT22;13826;51.186;4.450;2022-10-15T17:11:20;16.80;1.00
26053;DHT22;13826;51.186;4.450;2022-10-15T17:13:47;16.60;1.00
26053;DHT22;13826;51.186;4.450;2022-10-15T17:16:16;16.60;1.00
26053;DHT22;13826;51.186;4.450;2022-10-15T17:18:43;16.60;1.00
26053;DHT22;13826;51.186;4.450;2022-10-15T17:21:20;16.70;1.00
26053;DHT22;13826;51.186;4.450;2022-10-15T17:23:46;16.70;1.00
26053;DHT22;13826;51.186;4.450;2022-10-15T17:26:18;16.60;1.00
26053;DHT22;13826;51.186;4.450;2022-10-15T17:28:45;16.70;1.00
26053;DHT22;13826;51.186;4.450;2022-10-15T17:31:14;16.80;1.00
26053;DHT22;13826;51.186;4.450;2022-10-15T17:33:42;16.80;1.00
26053;DHT22;13826;51.186;4.450;2022-10-15T17:36:10;16.70;1.00
26053;DHT22;13826;51.186;4.450;2022-10-15T17:38:36;16.70;1.00
26053;DHT22;13826;51.186;4.450;2022-10-15T17:43:58;16.70;1.00
26053;DHT22;13826;51.186;4.450;2022-10-15T17:46:26;16.50;4.00
26053;DHT22;13826;51.186;4.450;2022-10-15T17:48:53;16.40;9.70
26053;DHT22;13826;51.186;4.450;2022-10-15T17:51:21;16.40;13.00
26053;DHT22;13826;51.186;4.450;2022-10-15T17:53:47;16.40;14.10